METAR Data
IDs: Format: Raw Decoded Include TAF

Data at: 0327 UTC 24 Jun 2021

METAR for:KMIE (Muncie/Johnson Fld, IN, US)
Text:KMIE 240253Z AUTO 18006KT 10SM CLR 21/11 A3013 RMK AO2 SLP193 T02110106 53002
Temperature: 21.1°C ( 70°F)
Dewpoint: 10.6°C ( 51°F) [RH = 51%]
Pressure (altimeter):30.13 inches Hg (1020.4 mb) [Sea level pressure: 1019.3 mb]
Winds:from the S (180 degrees) at 7 MPH (6 knots; 3.1 m/s)
Visibility:10 or more sm (16+ km)
Ceiling:at least 12,000 feet AGL
Clouds:sky clear below 12,000 feet AGL
QC Flag:automated observation with no human augmentation